createdAt,value
2022-09-11T00:04:13.446Z,51.87
2022-09-11T00:09:13.923Z,49.20
2022-09-11T00:14:14.231Z,48.63
2022-09-11T00:19:14.049Z,45.50
2022-09-11T00:24:14.206Z,57.03
2022-09-11T00:29:12.583Z,51.97
2022-09-11T00:34:10.831Z,39.83
2022-09-11T00:39:09.075Z,71.30
2022-09-11T00:44:29.813Z,44.53
2022-09-11T00:49:32.571Z,39.27
2022-09-11T00:54:33.420Z,52.87
2022-09-11T00:59:34.627Z,42.43
2022-09-11T01:04:33.529Z,44.53
2022-09-11T01:09:33.969Z,42.90
2022-09-11T01:14:44.774Z,46.47
2022-09-11T01:20:04.355Z,50.07
2022-09-11T01:25:15.624Z,52.00
2022-09-11T01:30:18.696Z,52.37
2022-09-11T01:35:25.376Z,53.93
2022-09-11T01:40:29.067Z,49.97
2022-09-11T01:45:31.263Z,53.10
2022-09-11T01:50:32.738Z,48.10
2022-09-11T01:55:35.842Z,47.53
2022-09-11T02:00:36.762Z,56.20
2022-09-11T02:05:42.154Z,49.13
2022-09-11T02:10:44.300Z,55.27
2022-09-11T02:15:48.772Z,41.63
2022-09-11T02:20:48.648Z,39.57
2022-09-11T02:25:48.165Z,43.03
2022-09-11T02:30:51.363Z,47.07
2022-09-11T02:35:53.557Z,40.83
2022-09-11T02:41:01.539Z,53.90
2022-09-11T02:46:30.998Z,56.57
2022-09-11T02:51:35.545Z,43.00
2022-09-11T02:56:42.391Z,37.97
2022-09-11T03:01:55.238Z,37.73
2022-09-11T03:06:59.644Z,46.53
2022-09-11T03:11:57.912Z,32.87
2022-09-11T03:16:57.516Z,31.20
2022-09-11T03:21:56.003Z,34.70
2022-09-11T03:26:54.205Z,37.73
2022-09-11T03:31:52.727Z,33.67
2022-09-11T03:36:52.535Z,31.50
2022-09-11T03:41:52.333Z,38.60
2022-09-11T03:46:51.227Z,28.33
2022-09-11T03:51:50.632Z,33.70
2022-09-11T03:56:52.654Z,34.77
2022-09-11T04:01:51.040Z,36.83
2022-09-11T04:06:49.531Z,40.20
2022-09-11T04:11:47.950Z,47.63
2022-09-11T04:16:54.558Z,56.03
2022-09-11T04:21:52.831Z,77.03
2022-09-11T04:26:55.264Z,47.03
2022-09-11T04:32:00.141Z,58.83
2022-09-11T04:37:03.167Z,56.17
2022-09-11T04:42:04.406Z,60.83
2022-09-11T04:47:05.330Z,48.43
2022-09-11T04:52:06.020Z,53.70
2022-09-11T04:57:05.810Z,48.87
2022-09-11T05:02:07.126Z,56.63
2022-09-11T05:07:09.536Z,46.10
2022-09-11T05:12:07.954Z,43.83
2022-09-11T05:17:09.380Z,50.87
2022-09-11T05:22:12.126Z,52.13
2022-09-11T05:27:15.982Z,45.30
2022-09-11T05:32:16.628Z,52.47
2022-09-11T05:37:15.300Z,43.80
2022-09-11T05:42:17.664Z,74.13
2022-09-11T05:47:22.085Z,48.43
2022-09-11T05:52:24.853Z,44.10
2022-09-11T05:57:24.027Z,46.07
2022-09-11T06:02:23.664Z,50.63
2022-09-11T06:07:26.833Z,47.73
2022-09-11T06:12:26.123Z,46.90
2022-09-11T06:17:25.832Z,43.60
2022-09-11T06:22:24.615Z,49.90
2022-09-11T06:27:25.115Z,48.63
2022-09-11T06:32:26.456Z,43.73
2022-09-11T06:37:25.658Z,38.10
2022-09-11T06:42:24.611Z,47.13
2022-09-11T06:47:23.129Z,42.53
2022-09-11T06:52:25.502Z,30.70
2022-09-11T06:57:41.714Z,28.17
2022-09-11T07:02:46.146Z,43.20
2022-09-11T07:07:48.321Z,32.40
2022-09-11T07:12:47.517Z,42.20
2022-09-11T07:17:45.697Z,38.70
2022-09-11T07:22:47.004Z,32.83
2022-09-11T07:27:47.684Z,37.20
2022-09-11T07:32:47.906Z,32.37
2022-09-11T07:37:50.716Z,51.33
2022-09-11T07:42:49.868Z,29.37
2022-09-11T07:47:48.034Z,25.60
2022-09-11T07:52:48.474Z,19.90
2022-09-11T07:57:47.217Z,26.70
2022-09-11T08:02:45.828Z,24.37
2022-09-11T08:07:44.280Z,13.83
2022-09-11T08:12:47.564Z,17.13
2022-09-11T08:17:45.786Z,11.93
2022-09-11T08:22:44.063Z,17.47
2022-09-11T08:27:42.281Z,18.60
2022-09-11T08:32:43.264Z,16.87
2022-09-11T08:37:41.485Z,23.47
2022-09-11T08:42:42.420Z,21.17
2022-09-11T08:47:46.645Z,9.30
2022-09-11T08:52:48.740Z,13.60
2022-09-11T08:57:58.785Z,13.60
2022-09-11T09:03:33.548Z,16.70
2022-09-11T09:08:50.147Z,17.63
2022-09-11T09:14:21.369Z,19.43
2022-09-11T09:19:27.458Z,17.07
2022-09-11T09:24:29.483Z,18.43
2022-09-11T09:29:37.013Z,24.43
2022-09-11T09:34:42.951Z,12.27
2022-09-11T09:39:44.622Z,31.67
2022-09-11T09:44:53.815Z,14.33
2022-09-11T09:49:53.348Z,33.60
2022-09-11T09:54:56.387Z,22.37
2022-09-11T10:00:01.517Z,22.37
2022-09-11T10:05:08.648Z,24.33
2022-09-11T10:10:21.346Z,14.70
2022-09-11T10:15:22.458Z,17.17
2022-09-11T10:20:31.388Z,13.67
2022-09-11T10:25:30.191Z,12.80
2022-09-11T10:30:33.858Z,24.80
2022-09-11T10:35:35.725Z,22.63
2022-09-11T10:40:34.231Z,10.20
2022-09-11T10:45:33.831Z,46.13
2022-09-11T10:50:34.350Z,11.70
2022-09-11T10:55:36.312Z,12.83
2022-09-11T11:00:35.861Z,27.90
2022-09-11T11:05:45.676Z,58.67
2022-09-11T11:11:02.312Z,11.70
2022-09-11T11:16:07.624Z,7.93
2022-09-11T11:21:20.516Z,5.90
2022-09-11T11:26:33.926Z,57.97
2022-09-11T11:31:44.436Z,14.93
2022-09-11T11:36:47.874Z,7.50
2022-09-11T11:41:51.593Z,8.00
2022-09-11T11:46:52.316Z,15.73
2022-09-11T11:51:57.172Z,16.83
2022-09-11T11:57:00.829Z,10.23
2022-09-11T12:02:03.439Z,13.23
2022-09-11T12:07:05.202Z,7.70
2022-09-11T12:12:07.991Z,52.90
2022-09-11T12:17:27.326Z,14.50
2022-09-11T12:22:39.060Z,30.03
2022-09-11T12:27:55.505Z,5.83
2022-09-11T12:32:55.099Z,13.50
2022-09-11T12:38:01.073Z,24.97
2022-09-11T12:43:16.913Z,6.83
2022-09-11T12:48:17.785Z,11.80
2022-09-11T12:53:23.580Z,16.43
2022-09-11T12:58:34.081Z,19.43
2022-09-11T13:03:33.015Z,12.53
2022-09-11T13:08:38.554Z,11.90
2022-09-11T13:13:46.914Z,10.47
2022-09-11T13:18:45.249Z,7.80
2022-09-11T13:23:45.921Z,10.70
2022-09-11T13:28:47.879Z,9.80
2022-09-11T13:33:50.540Z,8.73
2022-09-11T13:38:54.465Z,6.77
2022-09-11T13:43:58.311Z,12.40
2022-09-11T13:49:00.237Z,6.77
2022-09-11T13:54:05.939Z,6.80
2022-09-11T13:59:36.223Z,7.40
2022-09-11T14:04:41.857Z,8.90
2022-09-11T14:09:41.359Z,9.63
2022-09-11T14:14:39.682Z,8.97
2022-09-11T14:19:38.213Z,5.73
2022-09-11T14:24:38.799Z,6.97
2022-09-11T14:29:38.298Z,9.50
2022-09-11T14:34:36.392Z,5.57
2022-09-11T14:39:39.654Z,7.70
2022-09-11T14:44:41.281Z,6.50
2022-09-11T14:49:39.411Z,6.47
2022-09-11T14:54:37.504Z,3.17
2022-09-11T14:59:35.614Z,5.67
2022-09-11T15:04:35.333Z,6.20
2022-09-11T15:09:33.463Z,7.00
2022-09-11T15:14:55.200Z,7.93
2022-09-11T15:19:52.779Z,5.43
2022-09-11T15:24:50.986Z,4.80
2022-09-11T15:29:49.140Z,5.03
2022-09-11T15:34:47.443Z,5.33
2022-09-11T15:39:47.109Z,5.10
2022-09-11T15:44:46.064Z,5.93
2022-09-11T15:49:47.816Z,11.60
2022-09-11T15:54:48.817Z,5.93
2022-09-11T15:59:46.984Z,5.63
2022-09-11T16:04:51.630Z,5.10
2022-09-11T16:09:53.021Z,3.80
2022-09-11T16:14:52.550Z,4.60
2022-09-11T16:19:51.467Z,5.30
2022-09-11T16:24:49.608Z,5.33
2022-09-11T16:30:25.932Z,5.00
2022-09-11T16:35:08.795Z,4.87
2022-09-11T16:40:09.208Z,5.83
2022-09-11T16:45:09.692Z,3.93
2022-09-11T16:50:08.641Z,6.03
2022-09-11T16:55:09.550Z,6.13
2022-09-11T17:00:10.792Z,4.33
2022-09-11T17:05:10.145Z,5.07
2022-09-11T17:10:09.357Z,5.50
2022-09-11T17:15:10.453Z,4.03
2022-09-11T17:20:11.689Z,7.17
2022-09-11T17:25:11.441Z,5.40
2022-09-11T17:30:12.759Z,4.53
2022-09-11T17:35:11.886Z,5.50
2022-09-11T17:40:10.921Z,4.97
2022-09-11T17:45:12.465Z,4.67
2022-09-11T17:50:13.952Z,5.43
2022-09-11T17:55:12.202Z,4.83
2022-09-11T18:00:13.432Z,8.43
2022-09-11T18:05:12.439Z,5.80
2022-09-11T18:10:10.949Z,5.80
2022-09-11T18:15:11.396Z,6.50
2022-09-11T18:20:10.012Z,6.00
2022-09-11T18:25:09.854Z,6.00
2022-09-11T18:30:09.913Z,11.27
2022-09-11T18:35:10.700Z,7.93
2022-09-11T18:40:09.614Z,7.17
2022-09-11T18:45:09.484Z,7.27
2022-09-11T18:50:09.884Z,8.30
2022-09-11T18:55:08.519Z,10.67
2022-09-11T19:00:07.723Z,10.00
2022-09-11T19:05:06.506Z,9.40
2022-09-11T19:10:07.196Z,9.23
2022-09-11T19:15:05.865Z,11.90
2022-09-11T19:20:05.974Z,9.23
2022-09-11T19:25:08.521Z,12.67
2022-09-11T19:30:08.739Z,9.27
2022-09-11T19:35:07.419Z,7.20
2022-09-11T19:40:07.986Z,6.67
2022-09-11T19:45:07.028Z,8.53
2022-09-11T19:50:05.898Z,6.77
2022-09-11T19:55:04.059Z,9.63
2022-09-11T20:00:05.074Z,7.73
2022-09-11T20:05:03.833Z,7.67
2022-09-11T20:10:01.960Z,11.63
2022-09-11T20:15:00.577Z,12.73
2022-09-11T20:20:01.734Z,12.90
2022-09-11T20:25:00.636Z,9.27
2022-09-11T20:30:00.487Z,12.70
2022-09-11T20:35:00.583Z,10.80
2022-09-11T20:40:00.433Z,9.93
2022-09-11T20:45:00.534Z,10.47
2022-09-11T20:50:00.745Z,7.23
2022-09-11T20:55:00.583Z,11.23
2022-09-11T21:00:00.614Z,12.83
2022-09-11T21:05:00.768Z,14.03
2022-09-11T21:09:59.055Z,10.73
2022-09-11T21:14:57.122Z,10.30
2022-09-11T21:19:57.531Z,11.43
2022-09-11T21:24:57.164Z,14.27
2022-09-11T21:29:55.568Z,9.17
2022-09-11T21:34:53.718Z,9.37
2022-09-11T21:39:51.868Z,9.50
2022-09-11T21:44:51.348Z,11.40
2022-09-11T21:49:49.522Z,11.00
2022-09-11T21:54:47.724Z,9.00
2022-09-11T21:59:45.828Z,9.43
2022-09-11T22:04:45.371Z,11.00
2022-09-11T22:09:43.547Z,9.07
2022-09-11T22:14:44.275Z,8.97
2022-09-11T22:19:45.803Z,11.10
2022-09-11T22:24:43.947Z,10.10
2022-09-11T22:29:46.844Z,14.33
2022-09-11T22:34:46.632Z,11.07
2022-09-11T22:39:44.917Z,16.60
2022-09-11T22:44:43.117Z,14.87
2022-09-11T22:49:41.280Z,16.90
2022-09-11T22:54:40.747Z,15.67
2022-09-11T22:59:38.834Z,13.50
2022-09-11T23:04:37.124Z,11.10
2022-09-11T23:09:35.223Z,14.10
2022-09-11T23:14:35.143Z,12.70
2022-09-11T23:19:34.324Z,10.17
2022-09-11T23:24:32.466Z,11.03
2022-09-11T23:29:30.742Z,9.23
2022-09-11T23:34:30.500Z,11.67
2022-09-11T23:39:28.630Z,13.43
2022-09-11T23:44:26.824Z,10.80
2022-09-11T23:49:24.977Z,10.37
2022-09-11T23:54:24.563Z,11.37
2022-09-11T23:59:22.782Z,13.53
